Sv.trijaya 2 — PNXR — position and weather

sailwx.info

Track history (hours):
 
Tides and Currents Weather Stations Pressure Air Temp Water Temp Dewpoint Dewpoint Depression Visibility Wind Speed Wind Dir Waves Ship Positions

Sv.trijaya 2

Last reported at 2018-Aug-14 23:07 UTC. Time now 2018-Aug-20 16:20 UTC.
Position S 06°52' E 113°01'.

; draft 3 m.

Type: Tug. MMSI: 525015849.

Date/timePositionNaut miles runAvg speedWind from/ knotsBaromVisibWave heightAir tempDewpointWater temp
2018-Aug-14 23:07S 06°52' E 113°01'0 0.0
2018-Aug-14 22:55S 06°52' E 113°01'0 0.0
2018-Aug-14 20:31S 06°52' E 113°01'0 0.0
2018-Aug-14 20:12S 06°52' E 113°01'0 0.0
2018-Aug-14 14:40S 06°52' E 113°01'0 0.0
2018-Aug-14 11:32S 06°52' E 113°01'0 0.0
2018-Aug-14 11:11S 06°52' E 113°01'0 0.0
2018-Aug-14 10:35S 06°52' E 113°01'0 0.0
2018-Aug-14 10:19S 06°52' E 113°01'0 0.0
2018-Aug-14 07:41S 06°52' E 113°01'0 0.0
2018-Aug-14 07:28S 06°52' E 113°01'0 0.0
2018-Aug-14 06:51S 06°52' E 113°01'0 0.0
2018-Aug-14 02:57S 06°52' E 113°01'1 2.9
2018-Aug-14 02:30S 06°51' E 113°01'1 0.1
2018-Aug-13 17:42S 06°52' E 113°02'0 0.0
2018-Aug-13 16:37S 06°52' E 113°02'0 0.0
2018-Aug-13 16:18S 06°52' E 113°02'0 0.0
2018-Aug-11 21:20S 06°52' E 113°02'0 0.0
2018-Aug-11 20:58S 06°52' E 113°02'0 0.0
2018-Aug-11 17:49S 06°52' E 113°02'0 0.0
2018-Aug-11 16:31S 06°52' E 113°02'0 0.0
2018-Aug-11 14:46S 06°52' E 113°02'0 0.0
2018-Aug-11 06:14S 06°52' E 113°02'0 0.0
2018-Aug-11 05:06S 06°52' E 113°02'0 0.0
2018-Aug-11 04:58S 06°52' E 113°02'0 0.0
2018-Aug-11 04:13S 06°52' E 113°02'0 0.0
2018-Aug-10 20:28S 06°52' E 113°02'0 0.0
2018-Aug-10 17:42S 06°52' E 113°02'0 0.0
2018-Aug-10 17:26S 06°52' E 113°02'0 0.0
2018-Aug-10 11:25S 06°52' E 113°02'0 0.0
2018-Aug-10 06:57S 06°52' E 113°02'2 3.2
2018-Aug-10 06:26S 06°50' E 113°02'1 2.9
2018-Aug-10 05:59S 06°50' E 113°01'  
2018-Aug-07 02:18S 06°47' E 113°00'2 6.0
2018-Aug-07 01:59S 06°49' E 113°01'3 0.3
2018-Aug-06 12:51S 06°52' E 113°02'0 0.0
2018-Aug-06 04:38S 06°52' E 113°02'0 0.0
2018-Aug-06 03:26S 06°52' E 113°02'0 0.0
2018-Aug-06 02:56S 06°52' E 113°02'0 0.0
2018-Aug-06 02:17S 06°52' E 113°02'0 0.0
2018-Aug-06 01:52S 06°52' E 113°02'0 0.0
2018-Aug-06 01:28S 06°52' E 113°02'0 0.0
2018-Aug-06 00:21S 06°52' E 113°02'0 0.0
2018-Aug-06 00:00S 06°52' E 113°02'0 0.0
2018-Aug-05 23:25S 06°52' E 113°02'0 0.0
2018-Aug-05 22:59S 06°52' E 113°02'0 0.0
2018-Aug-05 22:30S 06°52' E 113°02'0 0.0
2018-Aug-05 22:00S 06°52' E 113°02'0 0.0
2018-Aug-05 21:15S 06°52' E 113°02'0 0.0
2018-Aug-05 20:55S 06°52' E 113°02'0 0.0
2018-Aug-05 20:23S 06°52' E 113°02'0 0.0
2018-Aug-05 19:57S 06°52' E 113°02'0 0.0
2018-Aug-05 19:22S 06°52' E 113°02'0 0.0
2018-Aug-05 18:57S 06°52' E 113°02'0 0.0
2018-Aug-05 18:28S 06°52' E 113°02'0 0.0
2018-Aug-05 17:59S 06°52' E 113°02'0 0.0
2018-Aug-05 17:24S 06°52' E 113°02'0 0.0
2018-Aug-05 17:00S 06°52' E 113°02'  
Track history (hours):
 
Tides and Currents Weather Stations Pressure Air Temp Water Temp Dewpoint Dewpoint Depression Visibility Wind Speed Wind Dir Waves Ship Positions

Sv.trijaya 2

Last reported at 2018-Aug-14 23:07 UTC. Time now 2018-Aug-20 16:20 UTC.
Position S 06°52' E 113°01'.

; draft 3 m.

Type: Tug. MMSI: 525015849.

Date/timePositionNaut miles runAvg speedWind from/ knotsBaromVisibWave heightAir tempDewpointWater temp
2018-Aug-14 23:07S 06°52' E 113°01'0 0.0
2018-Aug-14 22:55S 06°52' E 113°01'0 0.0
2018-Aug-14 20:31S 06°52' E 113°01'0 0.0
2018-Aug-14 20:12S 06°52' E 113°01'0 0.0
2018-Aug-14 14:40S 06°52' E 113°01'0 0.0
2018-Aug-14 11:32S 06°52' E 113°01'0 0.0
2018-Aug-14 11:11S 06°52' E 113°01'0 0.0
2018-Aug-14 10:35S 06°52' E 113°01'0 0.0
2018-Aug-14 10:19S 06°52' E 113°01'0 0.0
2018-Aug-14 07:41S 06°52' E 113°01'0 0.0
2018-Aug-14 07:28S 06°52' E 113°01'0 0.0
2018-Aug-14 06:51S 06°52' E 113°01'0 0.0
2018-Aug-14 02:57S 06°52' E 113°01'1 2.9
2018-Aug-14 02:30S 06°51' E 113°01'1 0.1
2018-Aug-13 17:42S 06°52' E 113°02'0 0.0
2018-Aug-13 16:37S 06°52' E 113°02'0 0.0
2018-Aug-13 16:18S 06°52' E 113°02'0 0.0
2018-Aug-11 21:20S 06°52' E 113°02'0 0.0
2018-Aug-11 20:58S 06°52' E 113°02'0 0.0
2018-Aug-11 17:49S 06°52' E 113°02'0 0.0
2018-Aug-11 16:31S 06°52' E 113°02'0 0.0
2018-Aug-11 14:46S 06°52' E 113°02'0 0.0
2018-Aug-11 06:14S 06°52' E 113°02'0 0.0
2018-Aug-11 05:06S 06°52' E 113°02'0 0.0
2018-Aug-11 04:58S 06°52' E 113°02'0 0.0
2018-Aug-11 04:13S 06°52' E 113°02'0 0.0
2018-Aug-10 20:28S 06°52' E 113°02'0 0.0
2018-Aug-10 17:42S 06°52' E 113°02'0 0.0
2018-Aug-10 17:26S 06°52' E 113°02'0 0.0
2018-Aug-10 11:25S 06°52' E 113°02'0 0.0
2018-Aug-10 06:57S 06°52' E 113°02'2 3.2
2018-Aug-10 06:26S 06°50' E 113°02'1 2.9
2018-Aug-10 05:59S 06°50' E 113°01'  
2018-Aug-07 02:18S 06°47' E 113°00'2 6.0
2018-Aug-07 01:59S 06°49' E 113°01'3 0.3
2018-Aug-06 12:51S 06°52' E 113°02'0 0.0
2018-Aug-06 04:38S 06°52' E 113°02'0 0.0
2018-Aug-06 03:26S 06°52' E 113°02'0 0.0
2018-Aug-06 02:56S 06°52' E 113°02'0 0.0
2018-Aug-06 02:17S 06°52' E 113°02'0 0.0
2018-Aug-06 01:52S 06°52' E 113°02'0 0.0
2018-Aug-06 01:28S 06°52' E 113°02'0 0.0
2018-Aug-06 00:21S 06°52' E 113°02'0 0.0
2018-Aug-06 00:00S 06°52' E 113°02'0 0.0
2018-Aug-05 23:25S 06°52' E 113°02'0 0.0
2018-Aug-05 22:59S 06°52' E 113°02'0 0.0
2018-Aug-05 22:30S 06°52' E 113°02'0 0.0
2018-Aug-05 22:00S 06°52' E 113°02'0 0.0
2018-Aug-05 21:15S 06°52' E 113°02'0 0.0
2018-Aug-05 20:55S 06°52' E 113°02'0 0.0
2018-Aug-05 20:23S 06°52' E 113°02'0 0.0
2018-Aug-05 19:57S 06°52' E 113°02'0 0.0
2018-Aug-05 19:22S 06°52' E 113°02'0 0.0
2018-Aug-05 18:57S 06°52' E 113°02'0 0.0
2018-Aug-05 18:28S 06°52' E 113°02'0 0.0
2018-Aug-05 17:59S 06°52' E 113°02'0 0.0
2018-Aug-05 17:24S 06°52' E 113°02'0 0.0
2018-Aug-05 17:00S 06°52' E 113°02'  

Dump ship's entire track history